createdAt,value
2019-01-26T00:00:30.490Z,3.40
2019-01-26T00:01:31.496Z,3.40
2019-01-26T00:02:32.514Z,3.40
2019-01-26T00:03:33.535Z,3.40
2019-01-26T00:04:34.676Z,3.40
2019-01-26T00:05:35.800Z,3.30
2019-01-26T00:06:36.809Z,3.30
2019-01-26T00:07:37.816Z,3.30
2019-01-26T00:08:38.839Z,3.30
2019-01-26T00:09:39.875Z,3.40
2019-01-26T00:10:41.129Z,3.40
2019-01-26T00:11:42.194Z,3.40
2019-01-26T00:12:43.214Z,3.40
2019-01-26T00:13:44.226Z,3.40
2019-01-26T00:14:45.247Z,3.40
2019-01-26T00:15:46.455Z,3.10
2019-01-26T00:16:47.516Z,3.40
2019-01-26T00:17:48.541Z,3.40
2019-01-26T00:18:49.551Z,3.40
2019-01-26T00:19:50.577Z,3.40
2019-01-26T00:20:51.595Z,3.50
2019-01-26T00:21:52.624Z,3.00
2019-01-26T00:22:53.647Z,3.40
2019-01-26T00:23:54.651Z,3.40
2019-01-26T00:24:55.702Z,3.40
2019-01-26T00:25:56.711Z,3.40
2019-01-26T00:26:57.721Z,3.40
2019-01-26T00:27:58.734Z,3.40
2019-01-26T00:28:59.739Z,3.30
2019-01-26T00:30:00.778Z,3.30
2019-01-26T00:31:01.894Z,3.30
2019-01-26T00:32:03.104Z,3.40
2019-01-26T00:33:04.328Z,3.20
2019-01-26T00:34:05.368Z,3.40
2019-01-26T00:35:07.083Z,3.40
2019-01-26T00:36:08.113Z,3.40
2019-01-26T00:37:09.124Z,3.40
2019-01-26T00:38:10.245Z,3.20
2019-01-26T00:39:11.271Z,3.40
2019-01-26T00:40:12.606Z,3.40
2019-01-26T00:41:13.614Z,3.40
2019-01-26T00:42:14.633Z,3.40
2019-01-26T00:43:15.646Z,3.50
2019-01-26T00:44:16.659Z,3.50
2019-01-26T00:45:17.688Z,3.50
2019-01-26T00:46:18.715Z,3.50
2019-01-26T00:47:19.759Z,3.60
2019-01-26T00:48:20.767Z,3.50
2019-01-26T00:49:21.800Z,3.50
2019-01-26T00:50:22.829Z,3.50
2019-01-26T00:51:23.844Z,3.50
2019-01-26T00:52:24.872Z,3.60
2019-01-26T00:53:25.905Z,3.60
2019-01-26T00:54:26.932Z,3.50
2019-01-26T00:55:27.968Z,3.50
2019-01-26T00:56:29.122Z,3.50
2019-01-26T00:57:30.132Z,3.50
2019-01-26T00:58:34.416Z,3.50
2019-01-26T00:59:35.596Z,3.50
2019-01-26T01:00:36.616Z,3.50
2019-01-26T01:01:37.734Z,3.50
2019-01-26T01:02:38.876Z,3.50
2019-01-26T01:03:40.191Z,3.40
2019-01-26T01:04:41.609Z,3.40
2019-01-26T01:05:42.959Z,3.30
2019-01-26T01:06:44.059Z,3.30
2019-01-26T01:07:45.094Z,3.30
2019-01-26T01:08:46.199Z,3.30
2019-01-26T01:09:47.255Z,3.30
2019-01-26T01:10:48.364Z,3.30
2019-01-26T01:11:49.387Z,2.90
2019-01-26T01:12:50.404Z,3.30
2019-01-26T01:13:51.419Z,3.30
2019-01-26T01:14:52.440Z,3.20
2019-01-26T01:15:53.493Z,3.20
2019-01-26T01:16:54.492Z,3.00
2019-01-26T01:17:55.501Z,3.00
2019-01-26T01:18:56.538Z,3.00
2019-01-26T01:19:57.635Z,2.70
2019-01-26T01:20:58.690Z,2.70
2019-01-26T01:21:59.784Z,3.00
2019-01-26T01:23:01.236Z,3.00
2019-01-26T01:24:02.366Z,3.00
2019-01-26T01:25:08.954Z,3.00
2019-01-26T01:26:10.054Z,2.60
2019-01-26T01:27:11.156Z,2.90
2019-01-26T01:28:12.172Z,3.00
2019-01-26T01:29:13.198Z,2.60
2019-01-26T01:30:23.743Z,2.90
2019-01-26T01:31:24.756Z,2.90
2019-01-26T01:32:25.787Z,2.90
2019-01-26T01:33:26.818Z,3.00
2019-01-26T01:34:27.837Z,3.00
2019-01-26T01:35:28.856Z,2.80
2019-01-26T01:36:29.909Z,2.80
2019-01-26T01:37:30.917Z,2.70
2019-01-26T01:38:31.967Z,3.00
2019-01-26T01:39:33.038Z,2.80
2019-01-26T01:40:34.084Z,2.60
2019-01-26T01:41:35.103Z,2.90
2019-01-26T01:42:36.176Z,2.60
2019-01-26T01:43:37.171Z,2.90
2019-01-26T01:44:38.186Z,2.90
2019-01-26T01:45:39.291Z,2.90
2019-01-26T01:46:43.055Z,2.90
2019-01-26T01:47:43.316Z,2.90
2019-01-26T01:48:44.335Z,2.60
2019-01-26T01:49:45.630Z,2.90
2019-01-26T01:50:46.652Z,3.10
2019-01-26T01:51:47.680Z,3.00
2019-01-26T01:52:48.691Z,2.60
2019-01-26T01:53:49.713Z,2.80
2019-01-26T01:54:50.728Z,3.00
2019-01-26T01:55:51.751Z,3.00
2019-01-26T01:56:52.873Z,3.10
2019-01-26T01:57:53.880Z,2.60
2019-01-26T01:58:54.913Z,3.10
2019-01-26T01:59:55.917Z,3.10
2019-01-26T02:00:56.937Z,3.00
2019-01-26T02:01:57.964Z,2.80
2019-01-26T02:02:58.979Z,2.60
2019-01-26T02:04:00.013Z,3.30
2019-01-26T02:05:01.045Z,3.10
2019-01-26T02:06:02.251Z,3.10
2019-01-26T02:07:03.383Z,3.10
2019-01-26T02:08:04.397Z,3.10
2019-01-26T02:09:06.119Z,3.10
2019-01-26T02:10:13.377Z,3.00
2019-01-26T02:11:14.399Z,3.00
2019-01-26T02:12:15.435Z,3.00
2019-01-26T02:13:16.472Z,3.00
2019-01-26T02:14:17.558Z,3.00
2019-01-26T02:15:18.676Z,3.00
2019-01-26T02:16:19.688Z,3.10
2019-01-26T02:17:20.718Z,3.10
2019-01-26T02:18:21.737Z,3.10
2019-01-26T02:19:22.758Z,3.10
2019-01-26T02:20:24.582Z,3.10
2019-01-26T02:21:25.648Z,3.10
2019-01-26T02:22:26.703Z,3.10
2019-01-26T02:23:27.728Z,2.80
2019-01-26T02:24:28.760Z,3.10
2019-01-26T02:25:29.791Z,3.00
2019-01-26T02:26:30.857Z,3.00
2019-01-26T02:27:31.956Z,2.70
2019-01-26T02:28:32.966Z,2.80
2019-01-26T02:29:34.008Z,2.60
2019-01-26T02:30:35.027Z,3.00
2019-01-26T02:31:36.143Z,3.00
2019-01-26T02:32:39.195Z,3.00
2019-01-26T02:33:40.217Z,3.00
2019-01-26T02:34:41.256Z,3.10
2019-01-26T02:35:42.336Z,3.00
2019-01-26T02:36:43.357Z,3.10
2019-01-26T02:37:44.400Z,3.00
2019-01-26T02:38:45.420Z,2.80
2019-01-26T02:39:46.448Z,2.70
2019-01-26T02:40:47.555Z,3.00
2019-01-26T02:41:48.576Z,3.10
2019-01-26T02:42:49.607Z,3.10
2019-01-26T02:43:50.617Z,3.10
2019-01-26T02:44:51.620Z,3.20
2019-01-26T02:45:54.379Z,3.20
2019-01-26T02:46:58.129Z,3.20
2019-01-26T02:47:58.299Z,3.30
2019-01-26T02:48:59.321Z,3.30
2019-01-26T02:50:00.324Z,3.40
2019-01-26T02:51:01.344Z,3.40
2019-01-26T02:52:02.456Z,3.40
2019-01-26T02:53:03.490Z,3.50
2019-01-26T02:54:04.601Z,3.50
2019-01-26T02:55:05.720Z,3.50
2019-01-26T02:56:06.744Z,3.60
2019-01-26T02:57:07.816Z,3.60
2019-01-26T02:58:08.871Z,3.60
2019-01-26T02:59:09.889Z,3.60
2019-01-26T03:00:21.120Z,3.60
2019-01-26T03:01:22.140Z,3.60
2019-01-26T03:02:23.171Z,3.60
2019-01-26T03:03:24.196Z,3.60
2019-01-26T03:04:25.207Z,3.60
2019-01-26T03:05:26.224Z,3.70
2019-01-26T03:06:27.243Z,3.70
2019-01-26T03:07:28.249Z,3.60
2019-01-26T03:08:29.297Z,3.60
2019-01-26T03:09:30.395Z,3.70
2019-01-26T03:10:31.403Z,3.70
2019-01-26T03:11:32.424Z,3.60
2019-01-26T03:12:33.438Z,3.70
2019-01-26T03:13:34.465Z,3.70
2019-01-26T03:14:35.480Z,3.70
2019-01-26T03:15:36.508Z,3.70
2019-01-26T03:16:37.512Z,3.80
2019-01-26T03:17:38.658Z,3.80
2019-01-26T03:18:39.736Z,3.80
2019-01-26T03:19:40.804Z,3.80
2019-01-26T03:20:41.824Z,3.80
2019-01-26T03:21:42.830Z,3.80
2019-01-26T03:22:43.863Z,3.90
2019-01-26T03:23:44.869Z,3.80
2019-01-26T03:24:45.907Z,3.80
2019-01-26T03:25:46.929Z,3.80
2019-01-26T03:26:47.960Z,3.90
2019-01-26T03:27:48.974Z,3.90
2019-01-26T03:28:50.007Z,3.90
2019-01-26T03:29:51.029Z,3.90
2019-01-26T03:30:52.037Z,3.90
2019-01-26T03:31:53.060Z,3.90
2019-01-26T03:32:54.095Z,3.90
2019-01-26T03:33:55.095Z,3.90
2019-01-26T03:34:56.116Z,3.90
2019-01-26T03:35:57.120Z,3.90
2019-01-26T03:36:58.137Z,3.90
2019-01-26T03:37:59.149Z,4.00
2019-01-26T03:39:00.184Z,4.00
2019-01-26T03:40:01.202Z,4.10
2019-01-26T03:41:02.541Z,4.10
2019-01-26T03:42:03.855Z,4.10
2019-01-26T03:43:04.881Z,4.20
2019-01-26T03:44:05.919Z,4.20
2019-01-26T03:45:09.156Z,4.20
2019-01-26T03:46:10.175Z,4.30
2019-01-26T03:47:13.793Z,4.30
2019-01-26T03:48:14.136Z,4.30
2019-01-26T03:49:15.184Z,4.40
2019-01-26T03:50:16.385Z,4.40
2019-01-26T03:51:17.397Z,4.40
2019-01-26T03:52:18.408Z,4.40
2019-01-26T03:53:19.416Z,4.50
2019-01-26T03:54:20.740Z,4.50
2019-01-26T03:55:21.859Z,4.50
2019-01-26T03:56:22.887Z,4.50
2019-01-26T03:57:23.897Z,4.50
2019-01-26T03:58:24.917Z,4.50
2019-01-26T03:59:25.937Z,4.60
2019-01-26T04:00:26.958Z,4.60
2019-01-26T04:01:28.282Z,4.60
2019-01-26T04:02:29.314Z,4.70
2019-01-26T04:03:30.628Z,4.70
2019-01-26T04:04:31.686Z,4.70
2019-01-26T04:05:32.802Z,4.70
2019-01-26T04:06:33.838Z,4.70
2019-01-26T04:07:34.862Z,4.70
2019-01-26T04:08:35.879Z,4.70
2019-01-26T04:09:36.900Z,4.70
2019-01-26T04:10:37.910Z,4.70
2019-01-26T04:11:39.007Z,4.70
2019-01-26T04:12:40.069Z,4.70
2019-01-26T04:13:41.086Z,4.70
2019-01-26T04:14:42.108Z,4.70
2019-01-26T04:15:43.121Z,4.70
2019-01-26T04:16:44.125Z,4.60
2019-01-26T04:17:45.558Z,4.70
2019-01-26T04:18:46.585Z,4.60
2019-01-26T04:19:47.616Z,4.60
2019-01-26T04:20:48.627Z,4.70
2019-01-26T04:21:49.628Z,4.70
2019-01-26T04:22:50.649Z,4.70
2019-01-26T04:23:51.660Z,4.80
2019-01-26T04:24:52.687Z,4.80
2019-01-26T04:25:53.717Z,4.80
2019-01-26T04:26:54.733Z,4.80
2019-01-26T04:27:55.755Z,4.80
2019-01-26T04:28:56.768Z,4.90
2019-01-26T04:29:57.801Z,4.90
2019-01-26T04:30:58.811Z,4.90
2019-01-26T04:31:59.811Z,4.90
2019-01-26T04:33:00.846Z,4.90
2019-01-26T04:34:01.859Z,5.00
2019-01-26T04:35:04.991Z,5.00
2019-01-26T04:36:06.334Z,5.00
2019-01-26T04:37:07.537Z,5.00
2019-01-26T04:38:08.543Z,5.00
2019-01-26T04:39:09.557Z,5.00
2019-01-26T04:40:13.474Z,5.00
2019-01-26T04:41:14.480Z,5.00
2019-01-26T04:42:15.503Z,5.20
2019-01-26T04:43:16.526Z,5.00
2019-01-26T04:44:17.557Z,5.00
2019-01-26T04:45:20.384Z,5.00
2019-01-26T04:46:21.394Z,5.00
2019-01-26T04:47:30.481Z,5.00
2019-01-26T04:48:25.331Z,5.00
2019-01-26T04:49:26.341Z,5.00
2019-01-26T04:50:27.366Z,5.00
2019-01-26T04:51:28.390Z,4.90
2019-01-26T04:52:29.480Z,4.90
2019-01-26T04:53:30.510Z,4.90
2019-01-26T04:54:31.522Z,5.00
2019-01-26T04:55:32.556Z,5.00
2019-01-26T04:56:33.565Z,5.00
2019-01-26T04:57:34.573Z,5.00
2019-01-26T04:58:35.600Z,5.00
2019-01-26T04:59:36.617Z,5.00
2019-01-26T05:00:37.641Z,5.00
2019-01-26T05:01:38.655Z,5.00
2019-01-26T05:02:39.672Z,5.00
2019-01-26T05:03:40.744Z,5.10
2019-01-26T05:04:41.759Z,5.10
2019-01-26T05:05:42.891Z,5.10
2019-01-26T05:06:43.926Z,5.20
2019-01-26T05:07:44.959Z,5.20
2019-01-26T05:08:45.968Z,5.20
2019-01-26T05:09:46.981Z,5.20
2019-01-26T05:10:48.003Z,5.30
2019-01-26T05:11:49.026Z,5.20
2019-01-26T05:12:50.059Z,5.20
2019-01-26T05:13:51.150Z,5.30
2019-01-26T05:14:52.177Z,5.30
2019-01-26T05:15:53.215Z,5.30
2019-01-26T05:16:54.251Z,5.20
2019-01-26T05:17:55.273Z,5.20
2019-01-26T05:18:56.370Z,5.20
2019-01-26T05:19:57.390Z,5.30
2019-01-26T05:20:58.420Z,5.30
2019-01-26T05:21:59.445Z,5.30
2019-01-26T05:23:00.452Z,5.30
2019-01-26T05:24:01.575Z,5.30
2019-01-26T05:25:04.581Z,5.40
2019-01-26T05:26:05.624Z,5.40
2019-01-26T05:27:06.628Z,5.40
2019-01-26T05:28:07.637Z,5.40
2019-01-26T05:29:08.651Z,5.40
2019-01-26T05:30:13.083Z,5.40
2019-01-26T05:31:14.101Z,5.50
2019-01-26T05:32:15.121Z,5.50
2019-01-26T05:33:16.145Z,5.50
2019-01-26T05:34:17.439Z,5.50
2019-01-26T05:35:18.446Z,5.50
2019-01-26T05:36:19.476Z,5.70
2019-01-26T05:37:20.491Z,5.60
2019-01-26T05:38:21.512Z,5.60
2019-01-26T05:39:22.795Z,5.60
2019-01-26T05:40:23.816Z,5.70
2019-01-26T05:41:24.835Z,5.60
2019-01-26T05:42:25.849Z,5.60
2019-01-26T05:43:26.861Z,5.70
2019-01-26T05:44:27.863Z,5.70
2019-01-26T05:45:28.884Z,5.70
2019-01-26T05:46:29.908Z,5.70
2019-01-26T05:47:30.932Z,5.70
2019-01-26T05:48:31.933Z,5.70
2019-01-26T05:49:32.940Z,5.60
2019-01-26T05:50:33.973Z,5.70
2019-01-26T05:51:34.972Z,5.60
2019-01-26T05:52:35.991Z,5.70
2019-01-26T05:53:37.002Z,5.80
2019-01-26T05:54:38.016Z,5.60
2019-01-26T05:55:39.033Z,5.60
2019-01-26T05:56:40.056Z,5.60
2019-01-26T05:57:41.068Z,5.60
2019-01-26T05:58:42.176Z,5.60
2019-01-26T05:59:43.179Z,5.60
2019-01-26T06:00:44.202Z,5.60
2019-01-26T06:01:45.228Z,5.60
2019-01-26T06:02:46.245Z,5.50
2019-01-26T06:03:47.265Z,5.50
2019-01-26T06:04:48.320Z,5.50
2019-01-26T06:05:49.325Z,5.50
2019-01-26T06:06:50.348Z,5.50
2019-01-26T06:07:51.377Z,5.50
2019-01-26T06:08:52.374Z,5.50
2019-01-26T06:09:53.408Z,5.60
2019-01-26T06:10:54.409Z,5.60
2019-01-26T06:11:55.428Z,5.50
2019-01-26T06:12:56.448Z,5.60
2019-01-26T06:13:57.458Z,5.60
2019-01-26T06:14:58.476Z,5.60
2019-01-26T06:15:59.487Z,5.70
2019-01-26T06:17:00.521Z,5.70
2019-01-26T06:18:01.525Z,5.70
2019-01-26T06:19:02.651Z,5.70
2019-01-26T06:20:07.270Z,5.80
2019-01-26T06:21:08.275Z,5.80
2019-01-26T06:22:09.305Z,5.80
2019-01-26T06:23:10.328Z,6.00
2019-01-26T06:24:11.330Z,5.90
2019-01-26T06:25:17.240Z,5.90
2019-01-26T06:26:18.356Z,5.90
2019-01-26T06:27:19.387Z,5.90
2019-01-26T06:28:20.405Z,5.90
2019-01-26T06:29:21.416Z,5.90
2019-01-26T06:30:23.628Z,5.90
2019-01-26T06:31:24.658Z,5.90
2019-01-26T06:32:25.667Z,5.90
2019-01-26T06:33:26.676Z,5.90
2019-01-26T06:34:27.689Z,5.90
2019-01-26T06:35:28.716Z,5.90
2019-01-26T06:36:29.725Z,5.90
2019-01-26T06:37:30.745Z,5.90
2019-01-26T06:38:31.752Z,6.00
2019-01-26T06:39:32.781Z,5.90
2019-01-26T06:40:33.791Z,6.00
2019-01-26T06:41:34.799Z,5.90
2019-01-26T06:42:35.824Z,6.00
2019-01-26T06:43:36.835Z,6.00
2019-01-26T06:44:37.841Z,6.00
2019-01-26T06:45:38.862Z,6.00
2019-01-26T06:46:39.895Z,6.00
2019-01-26T06:47:41.025Z,6.00
2019-01-26T06:48:42.059Z,6.00
2019-01-26T06:49:43.072Z,6.00
2019-01-26T06:50:44.087Z,6.10
2019-01-26T06:51:47.034Z,6.10
2019-01-26T06:52:48.051Z,6.10
2019-01-26T06:53:49.067Z,6.10
2019-01-26T06:54:50.088Z,6.10
2019-01-26T06:55:51.104Z,6.10
2019-01-26T06:56:52.123Z,6.10
2019-01-26T06:57:53.132Z,6.20
2019-01-26T06:58:54.141Z,6.20
2019-01-26T06:59:55.155Z,6.20
2019-01-26T07:00:56.172Z,6.20
2019-01-26T07:01:57.213Z,6.30
2019-01-26T07:02:58.440Z,6.30
2019-01-26T07:03:59.444Z,6.30
2019-01-26T07:05:02.383Z,6.30
2019-01-26T07:06:05.408Z,6.10
2019-01-26T07:07:08.247Z,6.30
2019-01-26T07:08:11.261Z,6.40
2019-01-26T07:09:12.267Z,6.40
2019-01-26T07:10:13.287Z,6.40
2019-01-26T07:11:14.335Z,6.40
2019-01-26T07:12:15.387Z,6.40
2019-01-26T07:13:16.396Z,6.40
2019-01-26T07:14:17.426Z,6.50
2019-01-26T07:15:18.934Z,6.50
2019-01-26T07:16:20.449Z,6.50
2019-01-26T07:17:22.384Z,6.50
2019-01-26T07:18:23.405Z,6.50
2019-01-26T07:19:24.417Z,6.40
2019-01-26T07:20:25.434Z,6.40
2019-01-26T07:21:26.563Z,6.40
2019-01-26T07:22:27.886Z,6.40
2019-01-26T07:23:28.907Z,6.40
2019-01-26T07:24:29.932Z,6.40
2019-01-26T07:25:31.053Z,6.30
2019-01-26T07:26:32.067Z,6.30
2019-01-26T07:27:33.112Z,6.30
2019-01-26T07:28:34.112Z,6.30
2019-01-26T07:29:35.124Z,6.30
2019-01-26T07:30:36.135Z,6.30
2019-01-26T07:31:37.152Z,6.40
2019-01-26T07:32:38.205Z,6.20
2019-01-26T07:33:39.228Z,6.30
2019-01-26T07:34:40.232Z,6.20
2019-01-26T07:35:41.243Z,6.20
2019-01-26T07:36:42.264Z,6.20
2019-01-26T07:37:43.296Z,6.20
2019-01-26T07:38:44.624Z,6.20
2019-01-26T07:39:45.648Z,6.30
2019-01-26T07:40:46.675Z,6.20
2019-01-26T07:41:47.711Z,6.20
2019-01-26T07:42:48.731Z,6.20
2019-01-26T07:43:49.750Z,6.10
2019-01-26T07:44:50.759Z,6.30
2019-01-26T07:45:51.775Z,6.20
2019-01-26T07:46:52.795Z,6.20
2019-01-26T07:47:53.819Z,6.20
2019-01-26T07:48:54.863Z,6.20
2019-01-26T07:49:55.888Z,6.20
2019-01-26T07:50:56.906Z,6.20
2019-01-26T07:51:57.923Z,6.20
2019-01-26T07:52:58.993Z,6.20
2019-01-26T07:54:00.075Z,6.20
2019-01-26T07:55:01.106Z,6.20
2019-01-26T07:56:02.119Z,6.20
2019-01-26T07:57:03.439Z,6.20
2019-01-26T07:58:04.690Z,6.20
2019-01-26T07:59:05.695Z,6.20
2019-01-26T08:00:13.556Z,6.30
2019-01-26T08:01:14.586Z,6.30
2019-01-26T08:02:15.796Z,6.30
2019-01-26T08:03:16.928Z,6.30
2019-01-26T08:04:17.942Z,6.30
2019-01-26T08:05:19.198Z,6.30
2019-01-26T08:06:20.198Z,6.30
2019-01-26T08:07:21.223Z,6.40
2019-01-26T08:08:22.245Z,6.40
2019-01-26T08:09:23.253Z,6.40
2019-01-26T08:10:25.077Z,6.40
2019-01-26T08:11:26.124Z,6.40
2019-01-26T08:12:27.199Z,6.40
2019-01-26T08:13:28.248Z,6.40
2019-01-26T08:14:29.277Z,6.40
2019-01-26T08:15:31.385Z,6.40
2019-01-26T08:16:32.391Z,6.40
2019-01-26T08:17:33.413Z,6.40
2019-01-26T08:18:34.456Z,6.40
2019-01-26T08:19:35.460Z,6.40
2019-01-26T08:20:36.492Z,6.40
2019-01-26T08:21:37.515Z,6.40
2019-01-26T08:22:38.549Z,6.40
2019-01-26T08:23:39.561Z,6.30
2019-01-26T08:24:40.567Z,6.40
2019-01-26T08:25:41.596Z,6.40
2019-01-26T08:26:42.605Z,6.40
2019-01-26T08:27:43.619Z,6.40
2019-01-26T08:28:44.656Z,6.40
2019-01-26T08:29:45.708Z,6.40
2019-01-26T08:30:46.795Z,6.40
2019-01-26T08:31:47.822Z,6.50
2019-01-26T08:32:49.234Z,6.50
2019-01-26T08:33:50.267Z,6.50
2019-01-26T08:34:51.272Z,6.50
2019-01-26T08:35:52.304Z,6.50
2019-01-26T08:36:53.316Z,6.50
2019-01-26T08:37:54.331Z,6.60
2019-01-26T08:38:55.365Z,6.60
2019-01-26T08:39:56.384Z,6.60
2019-01-26T19:28:14.749Z,6.40
2019-01-26T19:29:15.765Z,6.40
2019-01-26T19:30:19.701Z,6.40
2019-01-26T19:31:20.712Z,6.40
2019-01-26T19:32:21.737Z,6.50
2019-01-26T19:33:22.763Z,6.60
2019-01-26T19:34:23.905Z,6.70
2019-01-26T19:35:25.045Z,6.80
2019-01-26T19:36:26.121Z,7.10
2019-01-26T19:37:27.135Z,7.00
2019-01-26T19:38:28.149Z,7.10
2019-01-26T19:39:29.192Z,7.20
2019-01-26T19:40:30.210Z,7.20
2019-01-26T19:41:31.237Z,7.30
2019-01-26T19:42:32.269Z,7.40
2019-01-26T19:43:33.279Z,7.40
2019-01-26T19:44:34.293Z,7.50
2019-01-26T19:45:35.325Z,7.50
2019-01-26T19:46:36.401Z,7.60
2019-01-26T19:47:37.531Z,7.60
2019-01-26T19:48:38.525Z,7.60
2019-01-26T19:49:39.536Z,7.70
2019-01-26T19:50:40.555Z,7.70
2019-01-26T19:51:41.576Z,7.70
2019-01-26T19:52:42.605Z,7.70
2019-01-26T19:53:43.741Z,7.70
2019-01-26T19:54:44.745Z,7.80
2019-01-26T19:55:45.803Z,7.80
2019-01-26T19:56:46.807Z,7.80
2019-01-26T19:57:48.228Z,7.70
2019-01-26T19:58:49.252Z,7.80
2019-01-26T19:59:50.268Z,7.80
2019-01-26T20:00:51.296Z,7.80
2019-01-26T20:01:52.403Z,7.80
2019-01-26T20:02:53.425Z,7.80
2019-01-26T20:03:54.433Z,7.90
2019-01-26T20:04:55.465Z,7.90
2019-01-26T20:05:56.494Z,7.80
2019-01-26T20:06:57.523Z,7.80
2019-01-26T20:07:58.528Z,7.80
2019-01-26T20:08:59.539Z,7.90
2019-01-26T20:10:00.583Z,7.80
2019-01-26T20:11:01.590Z,7.90
2019-01-26T20:12:02.927Z,7.90
2019-01-26T20:13:03.935Z,7.90
2019-01-26T20:14:05.041Z,7.80
2019-01-26T20:15:09.592Z,7.90
2019-01-26T20:16:10.757Z,7.80
2019-01-26T20:17:11.827Z,7.80
2019-01-26T20:18:13.043Z,7.80
2019-01-26T20:19:14.080Z,7.80
2019-01-26T20:20:30.442Z,7.90
2019-01-26T20:21:31.738Z,7.80
2019-01-26T20:22:32.779Z,7.90
2019-01-26T20:23:33.948Z,7.90
2019-01-26T20:24:34.942Z,7.90
2019-01-26T20:25:35.981Z,7.90
2019-01-26T20:26:37.004Z,7.90
2019-01-26T20:27:38.020Z,7.90
2019-01-26T20:28:39.043Z,7.90
2019-01-26T20:29:40.073Z,7.90
2019-01-26T20:30:41.106Z,7.90
2019-01-26T20:31:42.134Z,7.90
2019-01-26T20:32:43.251Z,7.90
2019-01-26T20:33:44.264Z,7.90
2019-01-26T20:34:45.385Z,7.80
2019-01-26T20:35:46.436Z,7.80
2019-01-26T20:36:47.423Z,7.80
2019-01-26T20:37:48.650Z,7.80
2019-01-26T20:38:49.671Z,7.80
2019-01-26T20:39:50.709Z,7.80
2019-01-26T20:40:51.739Z,7.80
2019-01-26T20:41:52.803Z,7.80
2019-01-26T20:42:53.849Z,7.80
2019-01-26T20:43:54.928Z,7.80
2019-01-26T20:44:55.956Z,7.90
2019-01-26T20:45:56.969Z,7.90
2019-01-26T20:46:58.000Z,7.90
2019-01-26T20:47:59.018Z,7.90
2019-01-26T20:49:00.047Z,7.90
2019-01-26T20:50:01.063Z,7.90
2019-01-26T20:51:02.085Z,7.90
2019-01-26T20:52:03.212Z,7.90
2019-01-26T20:53:04.343Z,7.90
2019-01-26T20:54:05.470Z,7.90
2019-01-26T20:55:08.800Z,7.90
2019-01-26T20:56:09.843Z,7.80
2019-01-26T20:57:10.839Z,7.80
2019-01-26T20:58:11.880Z,7.80
2019-01-26T20:59:12.891Z,7.80
2019-01-26T21:00:22.616Z,7.80
2019-01-26T21:01:23.652Z,7.80
2019-01-26T21:02:24.686Z,7.80
2019-01-26T21:03:25.739Z,7.70
2019-01-26T21:04:26.744Z,7.60
2019-01-26T21:05:28.088Z,7.80
2019-01-26T21:06:29.136Z,7.70
2019-01-26T21:07:30.140Z,7.70
2019-01-26T21:08:31.172Z,7.70
2019-01-26T21:09:32.210Z,7.70
2019-01-26T21:10:33.245Z,7.70
2019-01-26T21:11:34.271Z,7.70
2019-01-26T21:12:35.288Z,7.70
2019-01-26T21:13:36.321Z,7.80
2019-01-26T21:14:37.350Z,7.70
2019-01-26T21:15:38.369Z,7.70
2019-01-26T21:16:39.393Z,7.70
2019-01-26T21:17:40.445Z,7.70
2019-01-26T21:18:41.540Z,7.70
2019-01-26T21:19:42.565Z,7.70
2019-01-26T21:20:43.589Z,7.70
2019-01-26T21:21:44.607Z,7.80
2019-01-26T21:22:46.042Z,7.70
2019-01-26T21:23:47.066Z,7.70
2019-01-26T21:24:48.089Z,7.70
2019-01-26T21:25:49.122Z,7.60
2019-01-26T21:26:50.228Z,7.60
2019-01-26T21:27:51.378Z,7.60
2019-01-26T21:28:52.492Z,7.60
2019-01-26T21:29:53.517Z,7.60
2019-01-26T21:30:54.531Z,7.60
2019-01-26T21:31:55.594Z,7.60
2019-01-26T21:32:56.609Z,7.60
2019-01-26T21:33:57.623Z,7.60
2019-01-26T21:34:58.632Z,7.60
2019-01-26T21:35:59.661Z,7.60
2019-01-26T21:37:00.683Z,7.60
2019-01-26T21:38:01.702Z,7.60
2019-01-26T21:39:06.226Z,7.60
2019-01-26T21:40:16.356Z,7.60
2019-01-26T21:41:17.468Z,7.50
2019-01-26T21:42:18.499Z,7.50
2019-01-26T21:43:19.503Z,7.50
2019-01-26T21:44:20.832Z,7.50
2019-01-26T21:45:21.942Z,7.50
2019-01-26T21:46:22.974Z,7.50
2019-01-26T21:47:26.409Z,7.40
2019-01-26T21:48:27.432Z,7.50
2019-01-26T21:49:28.456Z,7.50
2019-01-26T21:50:29.589Z,7.50
2019-01-26T21:51:30.604Z,7.50
2019-01-26T21:52:31.647Z,7.50
2019-01-26T21:53:32.665Z,7.50
2019-01-26T21:54:33.688Z,7.50
2019-01-26T21:55:34.702Z,7.50
2019-01-26T21:56:35.730Z,7.50
2019-01-26T21:57:36.763Z,7.50
2019-01-26T21:58:37.784Z,7.50
2019-01-26T21:59:38.801Z,7.50
2019-01-26T22:00:39.927Z,7.50
2019-01-26T22:01:40.951Z,7.50
2019-01-26T22:02:42.082Z,7.50
2019-01-26T22:03:43.292Z,7.50
2019-01-26T22:04:44.332Z,7.50
2019-01-26T22:05:45.364Z,7.50
2019-01-26T22:06:46.405Z,7.60
2019-01-26T22:07:47.475Z,7.60
2019-01-26T22:08:49.047Z,7.60
2019-01-26T22:09:50.137Z,7.60
2019-01-26T22:10:51.156Z,7.60
2019-01-26T22:11:52.176Z,7.60
2019-01-26T22:12:53.197Z,7.60
2019-01-26T22:13:54.211Z,7.60
2019-01-26T22:14:55.227Z,7.60
2019-01-26T22:15:56.244Z,7.60
2019-01-26T22:16:57.257Z,7.60
2019-01-26T22:17:58.384Z,7.60
2019-01-26T22:18:59.397Z,7.60
2019-01-26T22:20:00.428Z,7.60
2019-01-26T22:21:01.436Z,7.60
2019-01-26T22:22:02.570Z,7.70
2019-01-26T22:23:03.641Z,7.70
2019-01-26T22:24:04.673Z,7.70
2019-01-26T22:25:08.696Z,7.70
2019-01-26T22:26:09.701Z,7.70
2019-01-26T22:27:10.735Z,7.70
2019-01-26T22:28:11.769Z,7.70
2019-01-26T22:29:12.801Z,7.70
2019-01-26T22:30:18.947Z,7.70
2019-01-26T22:31:19.973Z,7.70
2019-01-26T22:32:21.093Z,7.80
2019-01-26T22:33:22.138Z,7.70
2019-01-26T22:34:23.183Z,7.70
2019-01-26T22:35:24.299Z,7.70
2019-01-26T22:36:25.334Z,7.80
2019-01-26T22:37:26.352Z,7.70
2019-01-26T22:38:27.415Z,7.70
2019-01-26T22:39:28.439Z,7.70
2019-01-26T22:40:34.030Z,7.70
2019-01-26T22:41:35.036Z,7.70
2019-01-26T22:42:36.061Z,7.70
2019-01-26T22:43:37.096Z,7.80
2019-01-26T22:44:38.119Z,7.80
2019-01-26T22:45:39.137Z,7.80
2019-01-26T22:46:40.162Z,7.80
2019-01-26T22:47:41.182Z,7.80
2019-01-26T22:48:42.213Z,7.80
2019-01-26T22:49:43.240Z,7.80
2019-01-26T22:50:44.253Z,7.80
2019-01-26T22:51:45.277Z,7.80
2019-01-26T22:52:47.031Z,7.80
2019-01-26T22:53:48.103Z,7.80
2019-01-26T22:54:49.121Z,7.80
2019-01-26T22:55:50.140Z,7.80
2019-01-26T22:56:51.169Z,7.80
2019-01-26T22:57:52.184Z,7.80
2019-01-26T22:58:53.408Z,7.80
2019-01-26T22:59:54.498Z,7.80
2019-01-26T23:00:59.865Z,7.90
2019-01-26T23:02:01.093Z,7.80
2019-01-26T23:03:02.309Z,7.80
2019-01-26T23:04:13.373Z,7.80
2019-01-26T23:05:30.026Z,7.80
2019-01-26T23:06:43.588Z,7.80
2019-01-26T23:07:44.617Z,7.80
2019-01-26T23:08:46.969Z,7.90
2019-01-26T23:10:12.780Z,7.80
2019-01-26T23:11:40.536Z,7.80
2019-01-26T23:12:45.355Z,7.80
2019-01-26T23:13:53.309Z,7.90
2019-01-26T23:15:03.631Z,7.90
2019-01-26T23:16:23.255Z,7.80
2019-01-26T23:17:37.360Z,7.80
2019-01-26T23:18:47.848Z,7.80
2019-01-26T23:20:07.325Z,7.70
2019-01-26T23:21:17.803Z,7.70
2019-01-26T23:22:34.738Z,7.70
2019-01-26T23:23:42.586Z,7.70
2019-01-26T23:24:53.517Z,7.70
2019-01-26T23:26:01.150Z,7.70
2019-01-26T23:27:15.089Z,7.60
2019-01-26T23:28:28.415Z,7.60
2019-01-26T23:29:35.786Z,7.70
2019-01-26T23:30:58.908Z,7.70
2019-01-26T23:31:59.931Z,7.60
2019-01-26T23:33:00.958Z,7.60
2019-01-26T23:34:02.094Z,7.60
2019-01-26T23:35:06.138Z,7.60
2019-01-26T23:36:07.252Z,7.70
2019-01-26T23:37:08.259Z,7.60
2019-01-26T23:38:09.298Z,7.60
2019-01-26T23:39:10.408Z,7.60
2019-01-26T23:40:11.644Z,7.60
2019-01-26T23:41:12.871Z,7.60
2019-01-26T23:42:13.876Z,7.60
2019-01-26T23:43:14.904Z,7.60
2019-01-26T23:44:15.936Z,7.60
2019-01-26T23:45:16.954Z,7.70
2019-01-26T23:46:18.082Z,7.60
2019-01-26T23:47:19.113Z,7.60
2019-01-26T23:48:20.158Z,7.60
2019-01-26T23:49:21.253Z,7.60
2019-01-26T23:50:22.280Z,7.60
2019-01-26T23:51:23.313Z,7.60
2019-01-26T23:52:24.338Z,7.60
2019-01-26T23:53:25.357Z,7.60
2019-01-26T23:54:26.400Z,7.60
2019-01-26T23:55:27.420Z,7.60
2019-01-26T23:56:28.466Z,7.60
2019-01-26T23:57:29.496Z,7.60
2019-01-26T23:58:30.511Z,7.60
2019-01-26T23:59:31.536Z,7.50
